sensor_id;sensor_type;location;lat;lon;timestamp;P1;durP1;ratioP1;P2;durP2;ratioP2
8574;SDS011;4325;42.520;27.448;2023-04-03T00:01:45;7.27;;;4.80;;
8574;SDS011;4325;42.520;27.448;2023-04-03T00:04:12;5.90;;;5.17;;
8574;SDS011;4325;42.520;27.448;2023-04-03T00:06:39;5.37;;;4.87;;
8574;SDS011;4325;42.520;27.448;2023-04-03T00:09:07;6.53;;;4.53;;
8574;SDS011;4325;42.520;27.448;2023-04-03T00:11:34;7.10;;;6.03;;
8574;SDS011;4325;42.520;27.448;2023-04-03T00:14:01;6.63;;;5.00;;
8574;SDS011;4325;42.520;27.448;2023-04-03T00:16:28;5.47;;;4.67;;
8574;SDS011;4325;42.520;27.448;2023-04-03T00:18:55;5.90;;;4.80;;
8574;SDS011;4325;42.520;27.448;2023-04-03T00:21:22;9.27;;;4.70;;
8574;SDS011;4325;42.520;27.448;2023-04-03T00:23:49;6.73;;;5.20;;
8574;SDS011;4325;42.520;27.448;2023-04-03T00:26:17;7.90;;;5.87;;
8574;SDS011;4325;42.520;27.448;2023-04-03T00:28:45;6.90;;;6.20;;
8574;SDS011;4325;42.520;27.448;2023-04-03T00:31:13;12.20;;;6.97;;
8574;SDS011;4325;42.520;27.448;2023-04-03T00:33:41;7.30;;;6.13;;
8574;SDS011;4325;42.520;27.448;2023-04-03T00:36:08;6.47;;;5.13;;
8574;SDS011;4325;42.520;27.448;2023-04-03T00:38:36;6.47;;;5.40;;
8574;SDS011;4325;42.520;27.448;2023-04-03T00:41:03;9.67;;;5.53;;
8574;SDS011;4325;42.520;27.448;2023-04-03T00:43:32;9.37;;;6.07;;
8574;SDS011;4325;42.520;27.448;2023-04-03T00:45:59;7.67;;;5.63;;
8574;SDS011;4325;42.520;27.448;2023-04-03T00:48:27;8.00;;;6.20;;
8574;SDS011;4325;42.520;27.448;2023-04-03T00:50:57;10.70;;;6.70;;
8574;SDS011;4325;42.520;27.448;2023-04-03T00:53:25;8.50;;;5.87;;
8574;SDS011;4325;42.520;27.448;2023-04-03T00:55:56;10.63;;;7.27;;
8574;SDS011;4325;42.520;27.448;2023-04-03T00:58:26;13.43;;;7.50;;
8574;SDS011;4325;42.520;27.448;2023-04-03T01:01:02;11.40;;;7.93;;
8574;SDS011;4325;42.520;27.448;2023-04-03T01:03:32;11.53;;;7.63;;
8574;SDS011;4325;42.520;27.448;2023-04-03T01:05:59;11.40;;;7.33;;
8574;SDS011;4325;42.520;27.448;2023-04-03T01:08:26;12.83;;;7.97;;
8574;SDS011;4325;42.520;27.448;2023-04-03T01:10:53;14.73;;;8.30;;
8574;SDS011;4325;42.520;27.448;2023-04-03T01:13:22;22.37;;;10.77;;
8574;SDS011;4325;42.520;27.448;2023-04-03T01:15:51;20.03;;;10.90;;
8574;SDS011;4325;42.520;27.448;2023-04-03T01:18:19;12.53;;;7.20;;
8574;SDS011;4325;42.520;27.448;2023-04-03T01:24:03;8.17;;;5.37;;
8574;SDS011;4325;42.520;27.448;2023-04-03T01:26:48;4.67;;;4.07;;
8574;SDS011;4325;42.520;27.448;2023-04-03T01:29:15;3.80;;;3.37;;
8574;SDS011;4325;42.520;27.448;2023-04-03T01:31:46;7.37;;;4.00;;
8574;SDS011;4325;42.520;27.448;2023-04-03T01:34:15;4.90;;;3.90;;
8574;SDS011;4325;42.520;27.448;2023-04-03T01:36:41;5.47;;;4.07;;
8574;SDS011;4325;42.520;27.448;2023-04-03T01:39:09;6.37;;;3.80;;
8574;SDS011;4325;42.520;27.448;2023-04-03T01:41:36;4.37;;;3.83;;
8574;SDS011;4325;42.520;27.448;2023-04-03T01:44:03;5.17;;;4.20;;
8574;SDS011;4325;42.520;27.448;2023-04-03T01:46:30;6.77;;;4.67;;
8574;SDS011;4325;42.520;27.448;2023-04-03T01:48:59;8.90;;;5.77;;
8574;SDS011;4325;42.520;27.448;2023-04-03T01:51:26;10.27;;;7.10;;
8574;SDS011;4325;42.520;27.448;2023-04-03T01:53:52;9.83;;;6.93;;
8574;SDS011;4325;42.520;27.448;2023-04-03T01:56:19;17.40;;;6.30;;
8574;SDS011;4325;42.520;27.448;2023-04-03T01:58:46;7.73;;;5.43;;
8574;SDS011;4325;42.520;27.448;2023-04-03T02:01:13;5.07;;;3.83;;
8574;SDS011;4325;42.520;27.448;2023-04-03T02:03:40;4.90;;;4.03;;
8574;SDS011;4325;42.520;27.448;2023-04-03T02:06:08;7.30;;;4.10;;
8574;SDS011;4325;42.520;27.448;2023-04-03T02:08:35;9.33;;;5.07;;
8574;SDS011;4325;42.520;27.448;2023-04-03T02:11:02;17.70;;;11.50;;
8574;SDS011;4325;42.520;27.448;2023-04-03T02:13:29;28.60;;;13.23;;
8574;SDS011;4325;42.520;27.448;2023-04-03T02:15:56;12.03;;;8.00;;
8574;SDS011;4325;42.520;27.448;2023-04-03T02:18:24;10.80;;;6.70;;
8574;SDS011;4325;42.520;27.448;2023-04-03T02:20:51;5.57;;;4.43;;
8574;SDS011;4325;42.520;27.448;2023-04-03T02:23:19;9.23;;;4.80;;
8574;SDS011;4325;42.520;27.448;2023-04-03T02:25:46;9.33;;;5.67;;
8574;SDS011;4325;42.520;27.448;2023-04-03T02:28:14;10.83;;;5.83;;
8574;SDS011;4325;42.520;27.448;2023-04-03T02:30:41;9.80;;;5.77;;
8574;SDS011;4325;42.520;27.448;2023-04-03T02:33:07;6.53;;;5.60;;
8574;SDS011;4325;42.520;27.448;2023-04-03T02:35:34;11.83;;;10.13;;
8574;SDS011;4325;42.520;27.448;2023-04-03T02:38:02;16.00;;;10.07;;
8574;SDS011;4325;42.520;27.448;2023-04-03T02:40:30;13.93;;;10.67;;
8574;SDS011;4325;42.520;27.448;2023-04-03T02:42:57;14.53;;;11.00;;
8574;SDS011;4325;42.520;27.448;2023-04-03T02:45:24;16.30;;;11.63;;
8574;SDS011;4325;42.520;27.448;2023-04-03T02:47:51;11.33;;;8.33;;
8574;SDS011;4325;42.520;27.448;2023-04-03T02:50:17;9.67;;;6.63;;
8574;SDS011;4325;42.520;27.448;2023-04-03T02:52:44;10.73;;;7.30;;
8574;SDS011;4325;42.520;27.448;2023-04-03T02:55:13;8.67;;;5.37;;
8574;SDS011;4325;42.520;27.448;2023-04-03T02:57:42;13.93;;;5.70;;
8574;SDS011;4325;42.520;27.448;2023-04-03T03:00:09;7.27;;;6.17;;
8574;SDS011;4325;42.520;27.448;2023-04-03T03:02:37;6.93;;;5.60;;
8574;SDS011;4325;42.520;27.448;2023-04-03T03:05:04;6.80;;;6.00;;
8574;SDS011;4325;42.520;27.448;2023-04-03T03:07:31;6.90;;;6.07;;
8574;SDS011;4325;42.520;27.448;2023-04-03T03:09:58;16.03;;;9.50;;
8574;SDS011;4325;42.520;27.448;2023-04-03T03:12:25;10.83;;;7.37;;
8574;SDS011;4325;42.520;27.448;2023-04-03T03:14:53;11.03;;;6.80;;
8574;SDS011;4325;42.520;27.448;2023-04-03T03:17:20;13.13;;;6.87;;
8574;SDS011;4325;42.520;27.448;2023-04-03T03:19:47;11.63;;;7.70;;
8574;SDS011;4325;42.520;27.448;2023-04-03T03:22:15;18.07;;;8.63;;
8574;SDS011;4325;42.520;27.448;2023-04-03T03:24:42;14.43;;;8.70;;
8574;SDS011;4325;42.520;27.448;2023-04-03T03:27:09;14.47;;;7.33;;
8574;SDS011;4325;42.520;27.448;2023-04-03T03:29:37;13.90;;;6.53;;
8574;SDS011;4325;42.520;27.448;2023-04-03T03:32:05;10.57;;;7.00;;
8574;SDS011;4325;42.520;27.448;2023-04-03T03:34:32;9.13;;;6.30;;
8574;SDS011;4325;42.520;27.448;2023-04-03T03:36:59;9.53;;;6.37;;
8574;SDS011;4325;42.520;27.448;2023-04-03T03:39:26;8.47;;;5.20;;
8574;SDS011;4325;42.520;27.448;2023-04-03T03:41:53;13.33;;;7.10;;
8574;SDS011;4325;42.520;27.448;2023-04-03T03:44:19;8.60;;;4.17;;
8574;SDS011;4325;42.520;27.448;2023-04-03T03:46:46;13.57;;;5.43;;
8574;SDS011;4325;42.520;27.448;2023-04-03T03:49:15;5.87;;;4.63;;
8574;SDS011;4325;42.520;27.448;2023-04-03T03:51:41;7.17;;;4.70;;
8574;SDS011;4325;42.520;27.448;2023-04-03T03:54:09;7.73;;;5.73;;
8574;SDS011;4325;42.520;27.448;2023-04-03T03:56:36;21.07;;;10.90;;
8574;SDS011;4325;42.520;27.448;2023-04-03T03:59:03;23.67;;;12.20;;
8574;SDS011;4325;42.520;27.448;2023-04-03T04:01:30;26.17;;;13.40;;
8574;SDS011;4325;42.520;27.448;2023-04-03T04:03:57;28.43;;;14.70;;
8574;SDS011;4325;42.520;27.448;2023-04-03T04:06:25;33.30;;;15.90;;
8574;SDS011;4325;42.520;27.448;2023-04-03T04:08:52;31.00;;;16.53;;
8574;SDS011;4325;42.520;27.448;2023-04-03T04:11:19;21.87;;;12.40;;
8574;SDS011;4325;42.520;27.448;2023-04-03T04:13:47;14.43;;;8.07;;
8574;SDS011;4325;42.520;27.448;2023-04-03T04:16:14;12.80;;;7.13;;
8574;SDS011;4325;42.520;27.448;2023-04-03T04:18:41;8.93;;;6.80;;
8574;SDS011;4325;42.520;27.448;2023-04-03T04:21:08;10.47;;;6.23;;
8574;SDS011;4325;42.520;27.448;2023-04-03T04:23:36;9.33;;;6.47;;
8574;SDS011;4325;42.520;27.448;2023-04-03T04:26:03;13.80;;;7.30;;
8574;SDS011;4325;42.520;27.448;2023-04-03T04:28:30;15.50;;;8.10;;
8574;SDS011;4325;42.520;27.448;2023-04-03T04:30:57;15.83;;;9.30;;
8574;SDS011;4325;42.520;27.448;2023-04-03T04:33:24;21.83;;;10.60;;
8574;SDS011;4325;42.520;27.448;2023-04-03T04:35:51;17.73;;;9.93;;
8574;SDS011;4325;42.520;27.448;2023-04-03T04:38:18;16.73;;;9.50;;
8574;SDS011;4325;42.520;27.448;2023-04-03T04:40:46;17.83;;;10.10;;
8574;SDS011;4325;42.520;27.448;2023-04-03T04:43:13;17.07;;;7.87;;
8574;SDS011;4325;42.520;27.448;2023-04-03T04:45:40;13.10;;;8.63;;
8574;SDS011;4325;42.520;27.448;2023-04-03T04:48:07;15.33;;;8.63;;
8574;SDS011;4325;42.520;27.448;2023-04-03T04:50:34;17.63;;;9.47;;
8574;SDS011;4325;42.520;27.448;2023-04-03T04:53:01;10.67;;;6.90;;
8574;SDS011;4325;42.520;27.448;2023-04-03T04:55:29;9.80;;;6.20;;
8574;SDS011;4325;42.520;27.448;2023-04-03T04:57:57;12.40;;;6.37;;
8574;SDS011;4325;42.520;27.448;2023-04-03T05:00:24;8.57;;;5.97;;
8574;SDS011;4325;42.520;27.448;2023-04-03T05:02:51;9.77;;;5.70;;
8574;SDS011;4325;42.520;27.448;2023-04-03T05:05:18;18.43;;;9.57;;
8574;SDS011;4325;42.520;27.448;2023-04-03T05:07:45;14.63;;;8.43;;
8574;SDS011;4325;42.520;27.448;2023-04-03T05:10:12;10.80;;;7.53;;
8574;SDS011;4325;42.520;27.448;2023-04-03T05:12:39;12.53;;;8.40;;
8574;SDS011;4325;42.520;27.448;2023-04-03T05:15:08;16.67;;;8.33;;
8574;SDS011;4325;42.520;27.448;2023-04-03T05:17:35;17.20;;;6.93;;
8574;SDS011;4325;42.520;27.448;2023-04-03T05:20:02;19.47;;;8.73;;
8574;SDS011;4325;42.520;27.448;2023-04-03T05:22:30;16.03;;;8.70;;
8574;SDS011;4325;42.520;27.448;2023-04-03T05:24:57;12.57;;;7.70;;
8574;SDS011;4325;42.520;27.448;2023-04-03T05:27:24;10.27;;;6.60;;
8574;SDS011;4325;42.520;27.448;2023-04-03T05:29:53;7.30;;;5.73;;
8574;SDS011;4325;42.520;27.448;2023-04-03T05:32:22;10.37;;;5.27;;
8574;SDS011;4325;42.520;27.448;2023-04-03T05:34:50;8.23;;;5.23;;
8574;SDS011;4325;42.520;27.448;2023-04-03T05:37:17;7.30;;;4.97;;
8574;SDS011;4325;42.520;27.448;2023-04-03T05:39:44;6.77;;;5.23;;
8574;SDS011;4325;42.520;27.448;2023-04-03T05:42:11;6.97;;;4.80;;
8574;SDS011;4325;42.520;27.448;2023-04-03T05:44:38;5.67;;;4.13;;
8574;SDS011;4325;42.520;27.448;2023-04-03T05:47:06;13.23;;;4.43;;
8574;SDS011;4325;42.520;27.448;2023-04-03T05:49:34;6.77;;;4.23;;
8574;SDS011;4325;42.520;27.448;2023-04-03T05:52:05;6.27;;;4.80;;
8574;SDS011;4325;42.520;27.448;2023-04-03T05:54:32;4.87;;;4.00;;
8574;SDS011;4325;42.520;27.448;2023-04-03T05:56:59;3.77;;;3.47;;
8574;SDS011;4325;42.520;27.448;2023-04-03T05:59:26;7.07;;;3.87;;
8574;SDS011;4325;42.520;27.448;2023-04-03T06:01:53;6.50;;;4.73;;
8574;SDS011;4325;42.520;27.448;2023-04-03T06:04:20;9.50;;;4.17;;
8574;SDS011;4325;42.520;27.448;2023-04-03T06:06:48;13.13;;;5.10;;
8574;SDS011;4325;42.520;27.448;2023-04-03T06:09:17;18.40;;;8.23;;
8574;SDS011;4325;42.520;27.448;2023-04-03T06:11:46;21.00;;;10.23;;
8574;SDS011;4325;42.520;27.448;2023-04-03T06:14:13;17.70;;;10.00;;
8574;SDS011;4325;42.520;27.448;2023-04-03T06:16:40;22.30;;;12.27;;
8574;SDS011;4325;42.520;27.448;2023-04-03T06:19:08;22.37;;;10.17;;
8574;SDS011;4325;42.520;27.448;2023-04-03T06:21:36;20.53;;;7.83;;
8574;SDS011;4325;42.520;27.448;2023-04-03T06:24:05;13.87;;;7.30;;
8574;SDS011;4325;42.520;27.448;2023-04-03T06:26:33;16.40;;;6.63;;
8574;SDS011;4325;42.520;27.448;2023-04-03T06:29:00;14.23;;;7.43;;
8574;SDS011;4325;42.520;27.448;2023-04-03T06:31:27;20.67;;;6.97;;
8574;SDS011;4325;42.520;27.448;2023-04-03T06:33:54;15.93;;;8.30;;
8574;SDS011;4325;42.520;27.448;2023-04-03T06:36:21;20.20;;;8.20;;
8574;SDS011;4325;42.520;27.448;2023-04-03T06:38:48;22.43;;;8.47;;
8574;SDS011;4325;42.520;27.448;2023-04-03T06:41:16;12.30;;;8.67;;
8574;SDS011;4325;42.520;27.448;2023-04-03T06:43:44;23.77;;;8.67;;
8574;SDS011;4325;42.520;27.448;2023-04-03T06:46:13;13.63;;;8.73;;
8574;SDS011;4325;42.520;27.448;2023-04-03T06:48:41;15.23;;;8.80;;
8574;SDS011;4325;42.520;27.448;2023-04-03T06:51:13;23.73;;;9.37;;
8574;SDS011;4325;42.520;27.448;2023-04-03T06:53:45;16.50;;;8.53;;
8574;SDS011;4325;42.520;27.448;2023-04-03T06:56:12;24.73;;;9.17;;
8574;SDS011;4325;42.520;27.448;2023-04-03T06:58:40;18.37;;;8.03;;
8574;SDS011;4325;42.520;27.448;2023-04-03T07:01:08;23.93;;;8.43;;
8574;SDS011;4325;42.520;27.448;2023-04-03T07:03:36;13.93;;;6.70;;
8574;SDS011;4325;42.520;27.448;2023-04-03T07:06:03;14.60;;;7.70;;
8574;SDS011;4325;42.520;27.448;2023-04-03T07:08:31;21.43;;;6.10;;
8574;SDS011;4325;42.520;27.448;2023-04-03T07:10:58;20.23;;;7.00;;
8574;SDS011;4325;42.520;27.448;2023-04-03T07:13:25;13.50;;;6.77;;
8574;SDS011;4325;42.520;27.448;2023-04-03T07:15:53;12.57;;;7.00;;
8574;SDS011;4325;42.520;27.448;2023-04-03T07:18:20;14.80;;;8.27;;
8574;SDS011;4325;42.520;27.448;2023-04-03T07:20:47;19.07;;;8.73;;
8574;SDS011;4325;42.520;27.448;2023-04-03T07:23:14;18.90;;;7.70;;
8574;SDS011;4325;42.520;27.448;2023-04-03T07:25:42;19.10;;;8.00;;
8574;SDS011;4325;42.520;27.448;2023-04-03T07:28:10;25.27;;;8.67;;
8574;SDS011;4325;42.520;27.448;2023-04-03T07:30:41;20.97;;;9.00;;
8574;SDS011;4325;42.520;27.448;2023-04-03T07:33:11;19.27;;;8.37;;
8574;SDS011;4325;42.520;27.448;2023-04-03T07:35:40;23.97;;;9.27;;
8574;SDS011;4325;42.520;27.448;2023-04-03T07:38:07;18.93;;;9.40;;
8574;SDS011;4325;42.520;27.448;2023-04-03T07:40:34;18.90;;;9.00;;
8574;SDS011;4325;42.520;27.448;2023-04-03T07:43:02;20.23;;;9.03;;
8574;SDS011;4325;42.520;27.448;2023-04-03T07:45:29;30.53;;;9.77;;
8574;SDS011;4325;42.520;27.448;2023-04-03T07:47:56;29.33;;;8.97;;
8574;SDS011;4325;42.520;27.448;2023-04-03T07:50:24;15.70;;;9.03;;
8574;SDS011;4325;42.520;27.448;2023-04-03T07:52:52;19.90;;;9.00;;
8574;SDS011;4325;42.520;27.448;2023-04-03T07:55:19;13.03;;;7.83;;
8574;SDS011;4325;42.520;27.448;2023-04-03T07:57:46;29.50;;;9.03;;
8574;SDS011;4325;42.520;27.448;2023-04-03T08:00:13;15.40;;;8.37;;
8574;SDS011;4325;42.520;27.448;2023-04-03T08:02:42;13.53;;;7.90;;
8574;SDS011;4325;42.520;27.448;2023-04-03T08:05:09;18.77;;;7.70;;
8574;SDS011;4325;42.520;27.448;2023-04-03T08:07:38;24.07;;;7.97;;
8574;SDS011;4325;42.520;27.448;2023-04-03T08:10:05;18.30;;;7.53;;
8574;SDS011;4325;42.520;27.448;2023-04-03T08:12:32;11.30;;;7.57;;
8574;SDS011;4325;42.520;27.448;2023-04-03T08:14:59;24.17;;;7.63;;
8574;SDS011;4325;42.520;27.448;2023-04-03T08:17:26;16.57;;;7.00;;
8574;SDS011;4325;42.520;27.448;2023-04-03T08:19:53;24.07;;;7.80;;
8574;SDS011;4325;42.520;27.448;2023-04-03T08:22:20;14.87;;;7.53;;
8574;SDS011;4325;42.520;27.448;2023-04-03T08:24:48;12.87;;;5.30;;
8574;SDS011;4325;42.520;27.448;2023-04-03T08:27:15;11.83;;;3.93;;
8574;SDS011;4325;42.520;27.448;2023-04-03T08:29:42;5.67;;;3.63;;
8574;SDS011;4325;42.520;27.448;2023-04-03T08:32:09;6.37;;;3.90;;
8574;SDS011;4325;42.520;27.448;2023-04-03T08:34:36;8.00;;;4.43;;
8574;SDS011;4325;42.520;27.448;2023-04-03T08:37:04;5.33;;;3.50;;
8574;SDS011;4325;42.520;27.448;2023-04-03T08:39:31;7.60;;;3.33;;
8574;SDS011;4325;42.520;27.448;2023-04-03T08:42:00;4.03;;;3.10;;
8574;SDS011;4325;42.520;27.448;2023-04-03T08:44:35;7.23;;;3.67;;
8574;SDS011;4325;42.520;27.448;2023-04-03T08:47:11;6.10;;;3.00;;
8574;SDS011;4325;42.520;27.448;2023-04-03T08:49:47;8.53;;;3.53;;
8574;SDS011;4325;42.520;27.448;2023-04-03T08:52:18;7.70;;;3.43;;
8574;SDS011;4325;42.520;27.448;2023-04-03T08:54:51;5.07;;;3.80;;
8574;SDS011;4325;42.520;27.448;2023-04-03T08:57:26;9.90;;;3.80;;
8574;SDS011;4325;42.520;27.448;2023-04-03T08:59:57;11.00;;;3.60;;
8574;SDS011;4325;42.520;27.448;2023-04-03T09:02:28;5.23;;;3.70;;
8574;SDS011;4325;42.520;27.448;2023-04-03T09:04:59;11.27;;;5.03;;
8574;SDS011;4325;42.520;27.448;2023-04-03T09:07:31;11.63;;;4.37;;
8574;SDS011;4325;42.520;27.448;2023-04-03T09:10:04;6.80;;;3.20;;
8574;SDS011;4325;42.520;27.448;2023-04-03T09:12:37;5.57;;;3.30;;
8574;SDS011;4325;42.520;27.448;2023-04-03T09:15:08;2.83;;;2.50;;
8574;SDS011;4325;42.520;27.448;2023-04-03T09:17:45;10.27;;;3.40;;
8574;SDS011;4325;42.520;27.448;2023-04-03T09:20:19;6.00;;;3.00;;
8574;SDS011;4325;42.520;27.448;2023-04-03T09:22:51;8.20;;;3.33;;
8574;SDS011;4325;42.520;27.448;2023-04-03T09:25:20;7.67;;;3.03;;
8574;SDS011;4325;42.520;27.448;2023-04-03T09:27:51;6.10;;;3.37;;
8574;SDS011;4325;42.520;27.448;2023-04-03T09:30:18;6.37;;;3.20;;
8574;SDS011;4325;42.520;27.448;2023-04-03T09:32:49;5.40;;;3.10;;
8574;SDS011;4325;42.520;27.448;2023-04-03T09:35:19;4.23;;;3.10;;
8574;SDS011;4325;42.520;27.448;2023-04-03T09:37:49;5.87;;;3.10;;
8574;SDS011;4325;42.520;27.448;2023-04-03T09:40:28;4.33;;;2.90;;
8574;SDS011;4325;42.520;27.448;2023-04-03T09:43:02;3.30;;;2.40;;
8574;SDS011;4325;42.520;27.448;2023-04-03T09:45:46;4.17;;;2.80;;
8574;SDS011;4325;42.520;27.448;2023-04-03T09:48:15;3.93;;;3.10;;
8574;SDS011;4325;42.520;27.448;2023-04-03T09:50:54;5.80;;;2.90;;
8574;SDS011;4325;42.520;27.448;2023-04-03T09:53:28;3.03;;;2.20;;
8574;SDS011;4325;42.520;27.448;2023-04-03T09:55:58;8.97;;;3.20;;
8574;SDS011;4325;42.520;27.448;2023-04-03T09:58:27;5.00;;;3.00;;
8574;SDS011;4325;42.520;27.448;2023-04-03T10:00:57;4.63;;;3.20;;
8574;SDS011;4325;42.520;27.448;2023-04-03T10:03:26;4.87;;;2.70;;
8574;SDS011;4325;42.520;27.448;2023-04-03T10:05:56;2.10;;;2.00;;
8574;SDS011;4325;42.520;27.448;2023-04-03T10:08:24;7.20;;;2.43;;
8574;SDS011;4325;42.520;27.448;2023-04-03T10:11:07;9.47;;;3.37;;
8574;SDS011;4325;42.520;27.448;2023-04-03T10:13:37;9.17;;;2.63;;
8574;SDS011;4325;42.520;27.448;2023-04-03T10:16:17;5.17;;;2.43;;
8574;SDS011;4325;42.520;27.448;2023-04-03T10:18:49;5.93;;;2.17;;
8574;SDS011;4325;42.520;27.448;2023-04-03T10:21:34;4.90;;;2.40;;
8574;SDS011;4325;42.520;27.448;2023-04-03T10:24:09;6.00;;;2.50;;
8574;SDS011;4325;42.520;27.448;2023-04-03T10:26:41;7.07;;;2.67;;
8574;SDS011;4325;42.520;27.448;2023-04-03T10:29:21;7.60;;;2.30;;
8574;SDS011;4325;42.520;27.448;2023-04-03T10:31:56;10.97;;;2.07;;
8574;SDS011;4325;42.520;27.448;2023-04-03T10:34:31;7.20;;;2.50;;
8574;SDS011;4325;42.520;27.448;2023-04-03T10:37:05;5.93;;;2.63;;
8574;SDS011;4325;42.520;27.448;2023-04-03T10:39:39;1.93;;;1.70;;
8574;SDS011;4325;42.520;27.448;2023-04-03T10:42:14;4.43;;;2.30;;
8574;SDS011;4325;42.520;27.448;2023-04-03T10:44:55;10.07;;;3.30;;
8574;SDS011;4325;42.520;27.448;2023-04-03T10:47:35;4.23;;;2.37;;
8574;SDS011;4325;42.520;27.448;2023-04-03T10:50:15;6.13;;;2.70;;
8574;SDS011;4325;42.520;27.448;2023-04-03T10:52:54;3.33;;;2.47;;
8574;SDS011;4325;42.520;27.448;2023-04-03T10:55:30;5.27;;;2.47;;
8574;SDS011;4325;42.520;27.448;2023-04-03T10:58:02;3.27;;;2.93;;
8574;SDS011;4325;42.520;27.448;2023-04-03T11:00:34;3.37;;;2.90;;
8574;SDS011;4325;42.520;27.448;2023-04-03T11:03:06;4.10;;;3.30;;
8574;SDS011;4325;42.520;27.448;2023-04-03T11:05:40;7.60;;;3.70;;
8574;SDS011;4325;42.520;27.448;2023-04-03T11:08:11;8.23;;;4.27;;
8574;SDS011;4325;42.520;27.448;2023-04-03T11:10:44;5.20;;;3.70;;
8574;SDS011;4325;42.520;27.448;2023-04-03T11:13:16;7.53;;;4.20;;
8574;SDS011;4325;42.520;27.448;2023-04-03T11:15:47;8.73;;;4.27;;
8574;SDS011;4325;42.520;27.448;2023-04-03T11:18:16;4.40;;;3.63;;
8574;SDS011;4325;42.520;27.448;2023-04-03T11:20:47;5.13;;;4.20;;
8574;SDS011;4325;42.520;27.448;2023-04-03T11:23:21;6.37;;;4.77;;
8574;SDS011;4325;42.520;27.448;2023-04-03T11:25:53;12.73;;;5.37;;
8574;SDS011;4325;42.520;27.448;2023-04-03T11:28:25;9.93;;;4.53;;
8574;SDS011;4325;42.520;27.448;2023-04-03T11:30:55;7.17;;;4.20;;
8574;SDS011;4325;42.520;27.448;2023-04-03T11:33:31;7.20;;;4.60;;
8574;SDS011;4325;42.520;27.448;2023-04-03T11:36:04;8.57;;;4.83;;
8574;SDS011;4325;42.520;27.448;2023-04-03T11:38:35;10.50;;;4.53;;
8574;SDS011;4325;42.520;27.448;2023-04-03T11:41:06;6.37;;;4.93;;
8574;SDS011;4325;42.520;27.448;2023-04-03T11:43:37;9.17;;;4.83;;
8574;SDS011;4325;42.520;27.448;2023-04-03T11:46:09;12.23;;;5.37;;
8574;SDS011;4325;42.520;27.448;2023-04-03T11:48:48;8.67;;;5.50;;
8574;SDS011;4325;42.520;27.448;2023-04-03T11:51:38;10.93;;;5.50;;
8574;SDS011;4325;42.520;27.448;2023-04-03T11:59:59;5.93;;;4.53;;
8574;SDS011;4325;42.520;27.448;2023-04-03T12:02:39;6.93;;;4.30;;
8574;SDS011;4325;42.520;27.448;2023-04-03T12:05:25;5.90;;;5.20;;
8574;SDS011;4325;42.520;27.448;2023-04-03T12:13:42;4.97;;;4.47;;
8574;SDS011;4325;42.520;27.448;2023-04-03T12:16:29;9.07;;;4.93;;
8574;SDS011;4325;42.520;27.448;2023-04-03T12:19:01;7.33;;;4.63;;
8574;SDS011;4325;42.520;27.448;2023-04-03T12:24:32;12.47;;;5.30;;
8574;SDS011;4325;42.520;27.448;2023-04-03T12:27:02;8.90;;;5.40;;
8574;SDS011;4325;42.520;27.448;2023-04-03T12:29:33;7.07;;;5.13;;
8574;SDS011;4325;42.520;27.448;2023-04-03T12:32:08;11.07;;;4.90;;
8574;SDS011;4325;42.520;27.448;2023-04-03T12:34:49;8.90;;;5.00;;
8574;SDS011;4325;42.520;27.448;2023-04-03T12:37:38;12.00;;;6.23;;
8574;SDS011;4325;42.520;27.448;2023-04-03T12:40:11;8.23;;;5.50;;
8574;SDS011;4325;42.520;27.448;2023-04-03T12:42:58;5.97;;;5.40;;
8574;SDS011;4325;42.520;27.448;2023-04-03T12:45:39;14.73;;;6.10;;
8574;SDS011;4325;42.520;27.448;2023-04-03T12:48:12;8.27;;;5.87;;
8574;SDS011;4325;42.520;27.448;2023-04-03T12:50:43;6.93;;;6.20;;
8574;SDS011;4325;42.520;27.448;2023-04-03T12:53:13;14.10;;;5.60;;
8574;SDS011;4325;42.520;27.448;2023-04-03T12:55:45;7.13;;;5.10;;
8574;SDS011;4325;42.520;27.448;2023-04-03T12:58:21;8.60;;;5.57;;
8574;SDS011;4325;42.520;27.448;2023-04-03T13:00:58;8.00;;;5.40;;
8574;SDS011;4325;42.520;27.448;2023-04-03T13:03:27;8.03;;;6.23;;
8574;SDS011;4325;42.520;27.448;2023-04-03T13:05:56;7.03;;;6.30;;
8574;SDS011;4325;42.520;27.448;2023-04-03T13:08:25;7.53;;;6.67;;
8574;SDS011;4325;42.520;27.448;2023-04-03T13:10:54;9.73;;;7.20;;
8574;SDS011;4325;42.520;27.448;2023-04-03T13:13:24;11.57;;;6.83;;
8574;SDS011;4325;42.520;27.448;2023-04-03T13:15:51;10.10;;;8.00;;
8574;SDS011;4325;42.520;27.448;2023-04-03T13:18:25;10.97;;;8.43;;
8574;SDS011;4325;42.520;27.448;2023-04-03T13:20:58;9.00;;;8.10;;
8574;SDS011;4325;42.520;27.448;2023-04-03T13:23:29;9.60;;;8.40;;
8574;SDS011;4325;42.520;27.448;2023-04-03T13:25:58;10.30;;;7.57;;
8574;SDS011;4325;42.520;27.448;2023-04-03T13:28:28;8.43;;;7.27;;
8574;SDS011;4325;42.520;27.448;2023-04-03T13:31:01;8.83;;;7.27;;
8574;SDS011;4325;42.520;27.448;2023-04-03T13:33:32;12.93;;;8.00;;
8574;SDS011;4325;42.520;27.448;2023-04-03T13:36:05;13.63;;;8.20;;
8574;SDS011;4325;42.520;27.448;2023-04-03T13:38:34;13.07;;;8.73;;
8574;SDS011;4325;42.520;27.448;2023-04-03T13:41:02;11.97;;;7.63;;
8574;SDS011;4325;42.520;27.448;2023-04-03T13:43:32;9.83;;;7.70;;
8574;SDS011;4325;42.520;27.448;2023-04-03T13:46:02;11.60;;;9.03;;
8574;SDS011;4325;42.520;27.448;2023-04-03T13:48:39;15.00;;;8.60;;
8574;SDS011;4325;42.520;27.448;2023-04-03T13:51:18;10.30;;;9.20;;
8574;SDS011;4325;42.520;27.448;2023-04-03T13:53:48;12.53;;;9.10;;
8574;SDS011;4325;42.520;27.448;2023-04-03T13:56:29;13.33;;;9.50;;
8574;SDS011;4325;42.520;27.448;2023-04-03T13:59:01;15.87;;;9.87;;
8574;SDS011;4325;42.520;27.448;2023-04-03T14:04:20;16.00;;;10.43;;
8574;SDS011;4325;42.520;27.448;2023-04-03T14:06:51;16.53;;;11.00;;
8574;SDS011;4325;42.520;27.448;2023-04-03T14:09:18;18.33;;;10.17;;
8574;SDS011;4325;42.520;27.448;2023-04-03T14:11:47;13.53;;;10.00;;
8574;SDS011;4325;42.520;27.448;2023-04-03T14:14:17;15.10;;;9.83;;
8574;SDS011;4325;42.520;27.448;2023-04-03T14:16:47;13.50;;;10.53;;
8574;SDS011;4325;42.520;27.448;2023-04-03T14:19:19;18.83;;;9.90;;
8574;SDS011;4325;42.520;27.448;2023-04-03T14:21:48;13.33;;;10.13;;
8574;SDS011;4325;42.520;27.448;2023-04-03T14:24:17;17.43;;;10.27;;
8574;SDS011;4325;42.520;27.448;2023-04-03T14:26:45;16.47;;;10.30;;
8574;SDS011;4325;42.520;27.448;2023-04-03T14:29:12;13.97;;;9.97;;
8574;SDS011;4325;42.520;27.448;2023-04-03T14:31:40;13.13;;;10.83;;
8574;SDS011;4325;42.520;27.448;2023-04-03T14:34:09;13.70;;;10.73;;
8574;SDS011;4325;42.520;27.448;2023-04-03T14:36:36;14.57;;;10.63;;
8574;SDS011;4325;42.520;27.448;2023-04-03T14:39:04;16.70;;;10.63;;
8574;SDS011;4325;42.520;27.448;2023-04-03T14:41:36;11.63;;;9.43;;
8574;SDS011;4325;42.520;27.448;2023-04-03T14:44:03;13.53;;;9.70;;
8574;SDS011;4325;42.520;27.448;2023-04-03T14:46:31;9.00;;;8.10;;
8574;SDS011;4325;42.520;27.448;2023-04-03T14:49:01;10.33;;;9.23;;
8574;SDS011;4325;42.520;27.448;2023-04-03T14:51:32;10.87;;;8.57;;
8574;SDS011;4325;42.520;27.448;2023-04-03T14:53:59;12.77;;;8.80;;
8574;SDS011;4325;42.520;27.448;2023-04-03T14:56:27;11.47;;;8.17;;
8574;SDS011;4325;42.520;27.448;2023-04-03T14:58:58;11.73;;;8.17;;
8574;SDS011;4325;42.520;27.448;2023-04-03T15:01:26;9.43;;;8.43;;
8574;SDS011;4325;42.520;27.448;2023-04-03T15:03:54;10.03;;;7.77;;
8574;SDS011;4325;42.520;27.448;2023-04-03T15:06:20;12.50;;;8.43;;
8574;SDS011;4325;42.520;27.448;2023-04-03T15:08:47;9.43;;;7.80;;
8574;SDS011;4325;42.520;27.448;2023-04-03T15:11:14;10.50;;;7.73;;
8574;SDS011;4325;42.520;27.448;2023-04-03T15:13:41;10.23;;;7.97;;
8574;SDS011;4325;42.520;27.448;2023-04-03T15:16:14;13.83;;;7.83;;
8574;SDS011;4325;42.520;27.448;2023-04-03T15:18:43;11.00;;;8.63;;
8574;SDS011;4325;42.520;27.448;2023-04-03T15:21:11;9.70;;;8.50;;
8574;SDS011;4325;42.520;27.448;2023-04-03T15:23:38;11.03;;;8.03;;
8574;SDS011;4325;42.520;27.448;2023-04-03T15:26:05;11.83;;;8.33;;
8574;SDS011;4325;42.520;27.448;2023-04-03T15:28:32;8.93;;;8.03;;